OEDF/DMM METAR and TAF weather

Enter ICAO airport designator
Station Type Date Time Source
OEDF METAR 2020/04/03 22:00 UTC NOAA

OEDF 032200Z 32006KT CAVOK 22/17 Q1012 NOSIG


Station Type Date Time Source
OEDF Decoded METAR 2020/04/03 22:00 UTC NOAA

Dammam-King Fahd International Airport, Saudi Arabia (OEDF) 26-28N 049-47E
Apr 03, 2020 - 06:00 PM EDT / 2020.04.03 2200 UTC
Wind: from the NW (320 degrees) at 7 MPH (6 KT):0
Visibility: greater than 7 mile(s):0
Temperature: 71 F (22 C)
Dew Point: 62 F (17 C)
Relative Humidity: 73%
Pressure (altimeter): 29.88 in. Hg (1012 hPa)
ob: OEDF 032200Z 32006KT CAVOK 22/17 Q1012 NOSIG
cycle: 22

Station Type Date Time Source
OEDF TAF 2020/04/03 12:06 UTC NOAA

TAF TAF OEDF 031000Z 0312/0418 05012KT 8000 FEW040 SCT100
TEMPO 0312/0315 FEW030CB SCT040
BECMG 0318/0320 32006KT

Example: see airport list